Burns, Oregon
Current Conditions -  °F | °C
As of 5:53 AM on Saturday 25 Oct 2014 (Local Time) from KBNO Reporting Station
Clear Clear  
Wind Chill: 33°   Ceiling: Unl
Heat Index: 37°   Visibility: 10mi
Dew Point: 34°   Wind: 5mph
Humidity: 89%   Direction: 250°WSW
Pressure: 29.81"   Gusts: NA
Location:  43.59°N, 119.05°W
Report Text: KBNO 251253Z AUTO 25004KT 10SM CLR 03/01 A2981 RMK AO2 SLP091 T00280011
Loading
Personal Weather Stations






























Interactive Weather Map
Tropical Storm Tracking
New forecast layout! Learn more

10-Day Weather Forecast

Advertisements
Track Severe Weather on mobile